Time;durP1;ratioP1;P1;durP2;ratioP2;P2;SDS_P1;SDS_P2;PMS_P1;PMS_P2;Temp;Humidity;BMP_temperature;BMP_pressure;BME280_temperature;BME280_humidity;BME280_pressure;Samples;Min_cycle;Max_cycle;Signal;HPM_P1;HPM_P2
2021/12/12 00:00:27;;;;;;;;;;;;;;;;;;1011361;29;1209;-16
2021/12/12 00:00:58;;;;;;;;;;;;;;;;;;1021305;29;1274;-16
2021/12/12 00:01:33;;;;;;;;;;;;;;;;;;1022709;29;1081;-16
2021/12/12 00:02:10;;;;;;;;;;;;;;;;;;1014045;29;1264;-17
2021/12/12 00:02:57;;;;;;;;;;;;;;;;;;1014566;29;1022;-16
2021/12/12 00:03:35;;;;;;;;;;;;;;;;;;1014052;29;1586;-16
2021/12/12 00:04:13;;;;;;;;;;;;;;;;;;1018184;29;1173;-16
2021/12/12 00:04:47;;;;;;;;;;;;;;;;;;1018221;29;1212;-16
2021/12/12 00:05:20;;;;;;;;;;;;;;;;;;1017209;29;1273;-16
2021/12/12 00:05:56;;;;;;;;;;;;;;;;;;1004237;29;1364;-16
2021/12/12 00:06:29;;;;;;;;;;;;;;;;;;1002725;29;1262;-16
2021/12/12 00:07:01;;;;;;;;;;;;;;;;;;1002889;29;948;-16
2021/12/12 00:07:32;;;;;;;;;;;;;;;;;;1006628;29;1270;-16
2021/12/12 00:08:02;;;;;;;;;;;;;;;;;;1014339;29;1033;-17
2021/12/12 00:08:33;;;;;;;;;;;;;;;;;;1010518;29;967;-16
2021/12/12 00:09:16;;;;;;;;;;;;;;;;;;1010676;29;1185;-16
2021/12/12 00:09:50;;;;;;;;;;;;;;;;;;1014114;29;1908;-16
2021/12/12 00:10:23;;;;;;;;;;;;;;;;;;1014136;29;994;-16
2021/12/12 00:10:58;;;;;;;;;;;;;;;;;;1014394;29;1012;-16
2021/12/12 00:11:29;;;;;;;;;;;;;;;;;;1010334;29;1036;-16
2021/12/12 00:12:03;;;;;;;;;;;;;;;;;;1006600;29;1164;-16
2021/12/12 00:12:36;;;;;;;;;;;;;;;;;;1002617;29;1081;-17
2021/12/12 00:13:11;;;;;;;;;;;;;;;;;;1002501;29;1196;-16
2021/12/12 00:13:47;;;;;;;;;;;;;;;;;;1002829;29;1082;-16
2021/12/12 00:14:23;;;;;;;;;;;;;;;;;;1007546;29;1485;-16
2021/12/12 00:14:53;;;;;;;;;;;;;;;;;;1014913;29;992;-16
2021/12/12 00:15:24;;;;;;;;;;;;;;;;;;1014013;29;1034;-16
2021/12/12 00:15:55;;;;;;;;;;;;;;;;;;1014162;29;1429;-16
2021/12/12 00:16:27;;;;;;;;;;;;;;;;;;1010160;29;1043;-16
2021/12/12 00:16:59;;;;;;;;;;;;;;;;;;1006352;29;1494;-16
2021/12/12 00:17:29;;;;;;;;;;;;;;;;;;998663;29;1441;-16
2021/12/12 00:18:00;;;;;;;;;;;;;;;;;;999416;29;872;-16
2021/12/12 00:18:31;;;;;;;;;;;;;;;;;;1004510;29;1253;-16
2021/12/12 00:19:01;;;;;;;;;;;;;;;;;;1006389;29;1211;-16
2021/12/12 00:19:32;;;;;;;;;;;;;;;;;;1010024;29;1288;-16
2021/12/12 00:20:03;;;;;;;;;;;;;;;;;;1010126;29;1144;-16
2021/12/12 00:20:34;;;;;;;;;;;;;;;;;;1010265;29;1102;-16
2021/12/12 00:21:05;;;;;;;;;;;;;;;;;;1018792;29;1393;-17
2021/12/12 00:21:37;;;;;;;;;;;;;;;;;;1019045;29;1228;-16
2021/12/12 00:22:10;;;;;;;;;;;;;;;;;;1018372;29;1024;-16
2021/12/12 00:22:41;;;;;;;;;;;;;;;;;;1013885;29;1541;-16
2021/12/12 00:23:12;;;;;;;;;;;;;;;;;;1014342;29;1282;-16
2021/12/12 00:23:42;;;;;;;;;;;;;;;;;;1013716;29;1285;-16
2021/12/12 00:24:13;;;;;;;;;;;;;;;;;;1014336;29;1015;-16
2021/12/12 00:24:45;;;;;;;;;;;;;;;;;;1010404;29;1070;-15
2021/12/12 00:25:16;;;;;;;;;;;;;;;;;;1010062;29;1317;-16
2021/12/12 00:25:49;;;;;;;;;;;;;;;;;;1010388;29;1193;-16
2021/12/12 00:26:19;;;;;;;;;;;;;;;;;;1011734;29;990;-16
2021/12/12 00:26:51;;;;;;;;;;;;;;;;;;1018735;29;880;-16
2021/12/12 00:27:22;;;;;;;;;;;;;;;;;;1019302;29;907;-16
2021/12/12 00:27:53;;;;;;;;;;;;;;;;;;1018821;29;783;-16
2021/12/12 00:28:26;;;;;;;;;;;;;;;;;;1019023;29;987;-16
2021/12/12 00:28:57;;;;;;;;;;;;;;;;;;1014147;29;1079;-17
2021/12/12 00:29:28;;;;;;;;;;;;;;;;;;1010080;29;1986;-16
2021/12/12 00:30:03;;;;;;;;;;;;;;;;;;1010638;29;1035;-16
2021/12/12 00:30:34;;;;;;;;;;;;;;;;;;1010330;29;1197;-16
2021/12/12 00:31:09;;;;;;;;;;;;;;;;;;1009937;29;1104;-16
2021/12/12 00:31:40;;;;;;;;;;;;;;;;;;1010018;29;1338;-16
2021/12/12 00:32:13;;;;;;;;;;;;;;;;;;1010346;29;1026;-16
2021/12/12 00:32:44;;;;;;;;;;;;;;;;;;1004505;29;1070;-16
2021/12/12 00:33:14;;;;;;;;;;;;;;;;;;1001360;29;1288;-16
2021/12/12 00:33:49;;;;;;;;;;;;;;;;;;998809;29;1352;-16
2021/12/12 00:34:20;;;;;;;;;;;;;;;;;;998295;29;1145;-16
2021/12/12 00:34:53;;;;;;;;;;;;;;;;;;1003602;29;1076;-16
2021/12/12 00:35:24;;;;;;;;;;;;;;;;;;1002779;29;982;-16
2021/12/12 00:35:54;;;;;;;;;;;;;;;;;;1000570;29;1055;-16
2021/12/12 00:36:26;;;;;;;;;;;;;;;;;;999823;29;925;-16
2021/12/12 00:36:56;;;;;;;;;;;;;;;;;;1005875;29;1430;-16
2021/12/12 00:37:28;;;;;;;;;;;;;;;;;;1006661;29;1111;-16
2021/12/12 00:38:00;;;;;;;;;;;;;;;;;;1013949;29;1101;-16
2021/12/12 00:38:33;;;;;;;;;;;;;;;;;;1014702;29;1063;-16
2021/12/12 00:39:16;;;;;;;;;;;;;;;;;;1010038;29;1463;-16
2021/12/12 00:39:51;;;;;;;;;;;;;;;;;;1009577;29;1294;-16
2021/12/12 00:40:24;;;;;;;;;;;;;;;;;;1006046;29;1071;-16
2021/12/12 00:40:55;;;;;;;;;;;;;;;;;;1008626;29;1189;-16
2021/12/12 00:41:40;;;;;;;;;;;;;;;;;;1010034;29;1620;-16
2021/12/12 00:42:13;;;;;;;;;;;;;;;;;;1015570;29;1120;-16
2021/12/12 00:42:43;;;;;;;;;;;;;;;;;;1013992;29;1030;-17
2021/12/12 00:43:25;;;;;;;;;;;;;;;;;;1014481;29;1005;-16
2021/12/12 00:43:57;;;;;;;;;;;;;;;;;;1014286;29;938;-16
2021/12/12 00:44:28;;;;;;;;;;;;;;;;;;1016392;29;950;-17
2021/12/12 00:45:00;;;;;;;;;;;;;;;;;;1018781;29;963;-16
2021/12/12 00:45:31;;;;;;;;;;;;;;;;;;1018050;29;976;-16
2021/12/12 00:46:04;;;;;;;;;;;;;;;;;;1014397;29;984;-16
2021/12/12 00:46:35;;;;;;;;;;;;;;;;;;1007944;29;1615;-16
2021/12/12 00:47:06;;;;;;;;;;;;;;;;;;1009108;29;1238;-16
2021/12/12 00:47:37;;;;;;;;;;;;;;;;;;1010257;29;1101;-16
2021/12/12 00:48:08;;;;;;;;;;;;;;;;;;1009780;29;1244;-16
2021/12/12 00:48:40;;;;;;;;;;;;;;;;;;1014243;29;955;-17
2021/12/12 00:49:11;;;;;;;;;;;;;;;;;;1013663;29;1520;-16
2021/12/12 00:49:42;;;;;;;;;;;;;;;;;;1014397;29;1910;-16
2021/12/12 00:50:18;;;;;;;;;;;;;;;;;;1018668;29;1078;-16
2021/12/12 00:50:49;;;;;;;;;;;;;;;;;;1018988;29;1157;-16
2021/12/12 00:51:21;;;;;;;;;;;;;;;;;;1018892;29;950;-16
2021/12/12 00:51:52;;;;;;;;;;;;;;;;;;1014378;29;984;-16
2021/12/12 00:52:23;;;;;;;;;;;;;;;;;;1009313;29;1235;-16
2021/12/12 00:52:54;;;;;;;;;;;;;;;;;;1010200;29;1093;-16
2021/12/12 00:53:25;;;;;;;;;;;;;;;;;;1006365;29;1315;-16
2021/12/12 00:53:56;;;;;;;;;;;;;;;;;;1006317;29;1042;-16
2021/12/12 00:54:31;;;;;;;;;;;;;;;;;;1006719;29;1200;-16
2021/12/12 00:55:01;;;;;;;;;;;;;;;;;;1008105;29;1058;-16
2021/12/12 00:55:37;;;;;;;;;;;;;;;;;;1018971;29;1097;-16
2021/12/12 00:56:08;;;;;;;;;;;;;;;;;;1018650;29;1465;-16
2021/12/12 00:56:39;;;;;;;;;;;;;;;;;;1013983;29;1021;-16
2021/12/12 00:57:13;;;;;;;;;;;;;;;;;;1014305;29;1153;-16
2021/12/12 00:57:52;;;;;;;;;;;;;;;;;;1009929;29;1253;-16
2021/12/12 00:58:23;;;;;;;;;;;;;;;;;;1000500;29;1052;-16
2021/12/12 00:58:53;;;;;;;;;;;;;;;;;;1002119;29;1249;-16
2021/12/12 00:59:25;;;;;;;;;;;;;;;;;;1007695;29;1024;-16
2021/12/12 00:59:55;;;;;;;;;;;;;;;;;;1012389;29;1159;-16
2021/12/12 01:00:29;;;;;;;;;;;;;;;;;;1018038;29;1073;-16
2021/12/12 01:01:03;;;;;;;;;;;;;;;;;;1014334;29;974;-16
2021/12/12 01:01:36;;;;;;;;;;;;;;;;;;1012984;29;1590;-16
2021/12/12 01:02:09;;;;;;;;;;;;;;;;;;1010450;29;1120;-16
2021/12/12 01:02:40;;;;;;;;;;;;;;;;;;1007295;29;985;-16
2021/12/12 01:03:11;;;;;;;;;;;;;;;;;;1010023;29;1141;-16
2021/12/12 01:03:45;;;;;;;;;;;;;;;;;;1010470;29;1026;-16
2021/12/12 01:04:23;;;;;;;;;;;;;;;;;;1006515;29;1458;-16
2021/12/12 01:04:55;;;;;;;;;;;;;;;;;;1010353;29;1021;-16
2021/12/12 01:05:26;;;;;;;;;;;;;;;;;;1010070;29;1306;-16
2021/12/12 01:05:57;;;;;;;;;;;;;;;;;;1011386;29;1298;-15
2021/12/12 01:06:28;;;;;;;;;;;;;;;;;;1014175;29;1260;-16
2021/12/12 01:07:01;;;;;;;;;;;;;;;;;;1013931;29;1280;-16
2021/12/12 01:07:33;;;;;;;;;;;;;;;;;;1010698;29;1148;-17
2021/12/12 01:08:04;;;;;;;;;;;;;;;;;;1014545;29;1188;-16
2021/12/12 01:08:35;;;;;;;;;;;;;;;;;;1014474;29;1086;-16
2021/12/12 01:09:09;;;;;;;;;;;;;;;;;;1015108;29;962;-16
2021/12/12 01:09:42;;;;;;;;;;;;;;;;;;1014034;29;1910;-16
2021/12/12 01:10:32;;;;;;;;;;;;;;;;;;1013884;29;955;-16
2021/12/12 01:11:02;;;;;;;;;;;;;;;;;;1010274;29;1001;-16
2021/12/12 01:11:34;;;;;;;;;;;;;;;;;;1010252;29;979;-16
2021/12/12 01:12:07;;;;;;;;;;;;;;;;;;1010400;29;950;-16
2021/12/12 01:12:38;;;;;;;;;;;;;;;;;;1011029;29;1704;-19
2021/12/12 01:13:08;;;;;;;;;;;;;;;;;;1018691;29;1037;-16
2021/12/12 01:13:40;;;;;;;;;;;;;;;;;;1018719;29;1049;-16
2021/12/12 01:14:12;;;;;;;;;;;;;;;;;;1014159;29;1048;-16
2021/12/12 01:14:47;;;;;;;;;;;;;;;;;;1010195;29;1096;-16
2021/12/12 01:15:24;;;;;;;;;;;;;;;;;;1006321;29;1618;-16
2021/12/12 01:16:17;;;;;;;;;;;;;;;;;;1007987;29;1023;-16
2021/12/12 01:16:56;;;;;;;;;;;;;;;;;;1003826;29;1411;-16
2021/12/12 01:17:30;;;;;;;;;;;;;;;;;;1018582;29;1167;-16
2021/12/12 01:18:04;;;;;;;;;;;;;;;;;;1019011;29;893;-16
2021/12/12 01:18:37;;;;;;;;;;;;;;;;;;1020578;29;1301;-16
2021/12/12 01:19:11;;;;;;;;;;;;;;;;;;1022811;29;982;-16
2021/12/12 01:19:43;;;;;;;;;;;;;;;;;;1021971;29;1068;-16
2021/12/12 01:20:20;;;;;;;;;;;;;;;;;;1017278;29;1477;-16
2021/12/12 01:20:53;;;;;;;;;;;;;;;;;;1014081;29;1179;-16
2021/12/12 01:21:27;;;;;;;;;;;;;;;;;;1004232;29;1350;-16
2021/12/12 01:22:02;;;;;;;;;;;;;;;;;;1004136;29;1028;-16
2021/12/12 01:22:36;;;;;;;;;;;;;;;;;;1007848;29;1039;-16
2021/12/12 01:23:12;;;;;;;;;;;;;;;;;;1009698;29;1390;-16
2021/12/12 01:23:47;;;;;;;;;;;;;;;;;;1013772;29;1137;-16
2021/12/12 01:24:24;;;;;;;;;;;;;;;;;;1013985;29;1035;-16
2021/12/12 01:24:56;;;;;;;;;;;;;;;;;;1002240;29;1020;-16
2021/12/12 01:25:31;;;;;;;;;;;;;;;;;;1000296;29;1049;-16
2021/12/12 01:26:02;;;;;;;;;;;;;;;;;;997806;29;1614;-16
2021/12/12 01:26:33;;;;;;;;;;;;;;;;;;1003271;29;1114;-16
2021/12/12 01:27:06;;;;;;;;;;;;;;;;;;1006261;29;1062;-16
2021/12/12 01:27:36;;;;;;;;;;;;;;;;;;1006784;29;1114;-16
2021/12/12 01:28:07;;;;;;;;;;;;;;;;;;1006451;29;887;-16
2021/12/12 01:28:39;;;;;;;;;;;;;;;;;;1006660;29;1332;-16
2021/12/12 01:29:10;;;;;;;;;;;;;;;;;;1017871;29;1196;-16
2021/12/12 01:29:40;;;;;;;;;;;;;;;;;;1017848;29;1914;-16
2021/12/12 01:30:13;;;;;;;;;;;;;;;;;;1022237;29;1085;-16
2021/12/12 01:30:43;;;;;;;;;;;;;;;;;;1022582;29;953;-16
2021/12/12 01:31:16;;;;;;;;;;;;;;;;;;1022661;29;1101;-16
2021/12/12 01:31:48;;;;;;;;;;;;;;;;;;1014108;29;875;-16
2021/12/12 01:32:28;;;;;;;;;;;;;;;;;;1014352;29;900;-16
2021/12/12 01:32:58;;;;;;;;;;;;;;;;;;1017728;29;1105;-16
2021/12/12 01:33:34;;;;;;;;;;;;;;;;;;1015414;29;999;-16
2021/12/12 01:34:11;;;;;;;;;;;;;;;;;;1017947;29;1078;-16
2021/12/12 01:34:43;;;;;;;;;;;;;;;;;;1016473;29;904;-16
2021/12/12 01:35:16;;;;;;;;;;;;;;;;;;1009727;29;1285;-16
2021/12/12 01:35:47;;;;;;;;;;;;;;;;;;1006211;29;1168;-16
2021/12/12 01:36:30;;;;;;;;;;;;;;;;;;1009987;29;1088;-16
2021/12/12 01:37:38;;;;;;;;;;;;;;;;;;1012177;29;870;-16
2021/12/12 01:39:00;;;;;;;;;;;;;;;;;;1021735;29;1447;-16
2021/12/12 01:39:33;;;;;;;;;;;;;;;;;;1021300;29;1083;-16
2021/12/12 01:40:25;;;;;;;;;;;;;;;;;;1010461;29;1321;-16
2021/12/12 01:40:57;;;;;;;;;;;;;;;;;;1013599;29;986;-16
2021/12/12 01:41:34;;;;;;;;;;;;;;;;;;1006287;29;1245;-16
2021/12/12 01:42:07;;;;;;;;;;;;;;;;;;1010126;29;959;-16
2021/12/12 01:42:40;;;;;;;;;;;;;;;;;;1011348;29;1109;-16
2021/12/12 01:43:29;;;;;;;;;;;;;;;;;;1015467;29;1122;-16
2021/12/12 01:44:06;;;;;;;;;;;;;;;;;;1013583;29;1244;-16
2021/12/12 01:44:39;;;;;;;;;;;;;;;;;;1009642;29;975;-16
2021/12/12 01:45:13;;;;;;;;;;;;;;;;;;1009743;29;1627;-16
2021/12/12 01:45:46;;;;;;;;;;;;;;;;;;1011727;29;1008;-16
2021/12/12 01:46:37;;;;;;;;;;;;;;;;;;1016851;29;962;-16
2021/12/12 01:47:08;;;;;;;;;;;;;;;;;;1017894;29;1121;-16
2021/12/12 01:47:49;;;;;;;;;;;;;;;;;;1014066;29;907;-16
2021/12/12 01:48:19;;;;;;;;;;;;;;;;;;1014136;29;1382;-16
2021/12/12 01:48:56;;;;;;;;;;;;;;;;;;1005910;29;1145;-16
2021/12/12 01:49:44;;;;;;;;;;;;;;;;;;1008444;29;1997;-16
2021/12/12 01:50:23;;;;;;;;;;;;;;;;;;1005473;29;1011;-16
2021/12/12 01:50:56;;;;;;;;;;;;;;;;;;1006244;29;1113;-16
2021/12/12 01:51:28;;;;;;;;;;;;;;;;;;1001693;29;1457;-16
2021/12/12 01:51:59;;;;;;;;;;;;;;;;;;1001848;29;1013;-16
2021/12/12 01:52:31;;;;;;;;;;;;;;;;;;1001920;29;1330;-16
2021/12/12 01:53:03;;;;;;;;;;;;;;;;;;1002471;29;1193;-16
2021/12/12 01:53:37;;;;;;;;;;;;;;;;;;1007478;29;1020;-16
2021/12/12 01:54:08;;;;;;;;;;;;;;;;;;1015485;29;1288;-16
2021/12/12 01:54:45;;;;;;;;;;;;;;;;;;1014043;29;1098;-16
2021/12/12 01:55:25;;;;;;;;;;;;;;;;;;1009624;29;1153;-16
2021/12/12 01:56:18;;;;;;;;;;;;;;;;;;1010040;29;1120;-16
2021/12/12 01:56:54;;;;;;;;;;;;;;;;;;1012904;29;1334;-16
2021/12/12 01:57:28;;;;;;;;;;;;;;;;;;1014752;29;1076;-16
2021/12/12 01:58:00;;;;;;;;;;;;;;;;;;1017891;29;978;-16
2021/12/12 01:58:31;;;;;;;;;;;;;;;;;;1017996;29;950;-17
2021/12/12 01:59:05;;;;;;;;;;;;;;;;;;1017995;29;888;-16
2021/12/12 01:59:37;;;;;;;;;;;;;;;;;;1013810;29;1560;-16
2021/12/12 02:00:16;;;;;;;;;;;;;;;;;;1013926;29;1397;-16
2021/12/12 02:00:48;;;;;;;;;;;;;;;;;;1013596;29;1275;-16
2021/12/12 02:01:23;;;;;;;;;;;;;;;;;;1015165;29;1065;-16
2021/12/12 02:01:56;;;;;;;;;;;;;;;;;;1016447;29;1192;-16
2021/12/12 02:02:28;;;;;;;;;;;;;;;;;;1017581;29;1329;-16
2021/12/12 02:03:00;;;;;;;;;;;;;;;;;;1013958;29;1045;-16
2021/12/12 02:03:32;;;;;;;;;;;;;;;;;;1009982;29;1153;-16
2021/12/12 02:04:11;;;;;;;;;;;;;;;;;;1009953;29;1016;-16
2021/12/12 02:04:44;;;;;;;;;;;;;;;;;;1006038;29;881;-16
2021/12/12 02:05:16;;;;;;;;;;;;;;;;;;1009202;29;1443;-16
2021/12/12 02:05:47;;;;;;;;;;;;;;;;;;1013935;29;1105;-16
2021/12/12 02:06:20;;;;;;;;;;;;;;;;;;1014444;29;1189;-16
2021/12/12 02:06:52;;;;;;;;;;;;;;;;;;1017332;29;1511;-16
2021/12/12 02:07:24;;;;;;;;;;;;;;;;;;1017845;29;1144;-16
2021/12/12 02:07:59;;;;;;;;;;;;;;;;;;1017549;29;1278;-16
2021/12/12 02:08:30;;;;;;;;;;;;;;;;;;1016972;29;1080;-16
2021/12/12 02:09:03;;;;;;;;;;;;;;;;;;1010192;29;1001;-16
2021/12/12 02:09:33;;;;;;;;;;;;;;;;;;1010029;29;1986;-16
2021/12/12 02:10:07;;;;;;;;;;;;;;;;;;1005092;29;1185;-16
2021/12/12 02:10:46;;;;;;;;;;;;;;;;;;1006700;29;1312;-16
2021/12/12 02:11:19;;;;;;;;;;;;;;;;;;1009956;29;1174;-16
2021/12/12 02:11:52;;;;;;;;;;;;;;;;;;1009802;29;1366;-16
2021/12/12 02:12:23;;;;;;;;;;;;;;;;;;1013323;29;1172;-16
2021/12/12 02:12:56;;;;;;;;;;;;;;;;;;1010110;29;989;-16
2021/12/12 02:13:29;;;;;;;;;;;;;;;;;;1010813;29;979;-16
2021/12/12 02:14:08;;;;;;;;;;;;;;;;;;1006124;29;1087;-16
2021/12/12 02:14:41;;;;;;;;;;;;;;;;;;1003744;29;1217;-16
2021/12/12 02:15:13;;;;;;;;;;;;;;;;;;1005743;29;1212;-16
2021/12/12 02:15:45;;;;;;;;;;;;;;;;;;999981;29;1263;-16
2021/12/12 02:16:16;;;;;;;;;;;;;;;;;;1002743;29;1361;-16
2021/12/12 02:16:48;;;;;;;;;;;;;;;;;;1005968;29;1090;-16
2021/12/12 02:17:30;;;;;;;;;;;;;;;;;;1008238;29;966;-16
2021/12/12 02:18:01;;;;;;;;;;;;;;;;;;1018447;29;1061;-16
2021/12/12 02:18:36;;;;;;;;;;;;;;;;;;1018385;29;948;-16
2021/12/12 02:19:07;;;;;;;;;;;;;;;;;;1020853;29;1374;-16
2021/12/12 02:19:59;;;;;;;;;;;;;;;;;;1022286;29;1085;-16
2021/12/12 02:20:39;;;;;;;;;;;;;;;;;;1017323;29;1224;-16
2021/12/12 02:21:21;;;;;;;;;;;;;;;;;;1014159;29;1026;-16
2021/12/12 02:22:09;;;;;;;;;;;;;;;;;;1014813;29;1426;-16
2021/12/12 02:23:42;;;;;;;;;;;;;;;;;;1021971;29;1099;-16
2021/12/12 02:35:54;;;;;;;;;;;;;;;;;;1020870;29;1242;-16
2021/12/12 02:35:59;;;;;;;;;;;;;;;;;;1007274;29;1049;-16
2021/12/12 02:36:31;;;;;;;;;;;;;;;;;;1013502;29;1220;-16
2021/12/12 02:37:02;;;;;;;;;;;;;;;;;;1013819;29;1005;-16
2021/12/12 02:37:33;;;;;;;;;;;;;;;;;;1014869;29;907;-16
2021/12/12 02:38:04;;;;;;;;;;;;;;;;;;1021161;29;1663;-16
2021/12/12 02:38:35;;;;;;;;;;;;;;;;;;1022603;29;1235;-16
2021/12/12 02:39:08;;;;;;;;;;;;;;;;;;1021860;29;1412;-16
2021/12/12 02:39:39;;;;;;;;;;;;;;;;;;1022146;29;1084;-16
2021/12/12 02:40:12;;;;;;;;;;;;;;;;;;1002237;29;1017;-16
2021/12/12 02:40:44;;;;;;;;;;;;;;;;;;998514;29;1082;-16
2021/12/12 02:41:16;;;;;;;;;;;;;;;;;;998714;29;1561;-16
2021/12/12 02:41:49;;;;;;;;;;;;;;;;;;1001995;29;1264;-16
2021/12/12 02:42:22;;;;;;;;;;;;;;;;;;1014958;29;1373;-16
2021/12/12 02:42:53;;;;;;;;;;;;;;;;;;1018888;29;1053;-16
2021/12/12 02:43:25;;;;;;;;;;;;;;;;;;1018164;29;1376;-16
2021/12/12 02:43:58;;;;;;;;;;;;;;;;;;1011354;29;1074;-16
2021/12/12 02:44:31;;;;;;;;;;;;;;;;;;1006910;29;881;-16
2021/12/12 02:45:04;;;;;;;;;;;;;;;;;;1002445;29;1632;-16
2021/12/12 02:45:35;;;;;;;;;;;;;;;;;;1005319;29;1146;-16
2021/12/12 02:46:07;;;;;;;;;;;;;;;;;;1011945;29;1353;-16
2021/12/12 02:46:40;;;;;;;;;;;;;;;;;;1014787;29;1055;-16
2021/12/12 02:47:17;;;;;;;;;;;;;;;;;;1014462;29;1330;-16
2021/12/12 02:47:54;;;;;;;;;;;;;;;;;;1014583;29;1183;-16
2021/12/12 02:48:29;;;;;;;;;;;;;;;;;;1016540;29;1129;-16
2021/12/12 02:49:10;;;;;;;;;;;;;;;;;;1014413;29;1583;-16
2021/12/12 02:49:55;;;;;;;;;;;;;;;;;;1003128;29;1907;-16
2021/12/12 02:50:28;;;;;;;;;;;;;;;;;;998849;29;1431;-16
2021/12/12 02:51:00;;;;;;;;;;;;;;;;;;1006066;29;1294;-16
2021/12/12 02:51:31;;;;;;;;;;;;;;;;;;1010192;29;1348;-16
2021/12/12 02:52:04;;;;;;;;;;;;;;;;;;1011363;29;1019;-16
2021/12/12 02:52:34;;;;;;;;;;;;;;;;;;1014832;29;856;-16
2021/12/12 02:53:05;;;;;;;;;;;;;;;;;;1017608;29;1487;-16
2021/12/12 02:53:38;;;;;;;;;;;;;;;;;;1018751;29;1171;-16
2021/12/12 02:54:09;;;;;;;;;;;;;;;;;;1022159;29;1239;-16
2021/12/12 02:54:40;;;;;;;;;;;;;;;;;;1013966;29;1206;-16
2021/12/12 02:55:17;;;;;;;;;;;;;;;;;;1010649;29;1164;-16
2021/12/12 02:55:50;;;;;;;;;;;;;;;;;;1010533;29;1269;-16
2021/12/12 02:56:40;;;;;;;;;;;;;;;;;;1014280;29;1257;-16
2021/12/12 02:57:12;;;;;;;;;;;;;;;;;;1022027;29;1325;-16
2021/12/12 02:57:42;;;;;;;;;;;;;;;;;;1023239;29;1024;-16
2021/12/12 02:58:16;;;;;;;;;;;;;;;;;;1023047;29;1343;-16
2021/12/12 02:58:48;;;;;;;;;;;;;;;;;;1014663;29;1146;-16
2021/12/12 02:59:20;;;;;;;;;;;;;;;;;;1010383;29;1298;-16
2021/12/12 02:59:51;;;;;;;;;;;;;;;;;;1010596;29;1293;-16
2021/12/12 03:00:23;;;;;;;;;;;;;;;;;;1006452;29;1056;-16
2021/12/12 03:00:58;;;;;;;;;;;;;;;;;;1007982;29;952;-16
2021/12/12 03:01:31;;;;;;;;;;;;;;;;;;1014075;29;1490;-16
2021/12/12 03:02:05;;;;;;;;;;;;;;;;;;1016927;29;997;-16
2021/12/12 03:02:43;;;;;;;;;;;;;;;;;;1023288;29;1124;-16
2021/12/12 03:03:14;;;;;;;;;;;;;;;;;;1023237;29;1005;-16
2021/12/12 03:03:47;;;;;;;;;;;;;;;;;;1023383;29;930;-16
2021/12/12 03:04:17;;;;;;;;;;;;;;;;;;1017568;29;1216;-16
2021/12/12 03:04:48;;;;;;;;;;;;;;;;;;1018443;29;1069;-16
2021/12/12 03:05:21;;;;;;;;;;;;;;;;;;1010407;29;1424;-16
2021/12/12 03:05:52;;;;;;;;;;;;;;;;;;1011025;29;1182;-16
2021/12/12 03:06:24;;;;;;;;;;;;;;;;;;1014657;29;990;-16
2021/12/12 03:06:55;;;;;;;;;;;;;;;;;;1014545;29;983;-16
2021/12/12 03:07:26;;;;;;;;;;;;;;;;;;1014005;29;1023;-17
2021/12/12 03:07:57;;;;;;;;;;;;;;;;;;1010673;29;1243;-16
2021/12/12 03:08:28;;;;;;;;;;;;;;;;;;1006599;29;1015;-16
2021/12/12 03:09:04;;;;;;;;;;;;;;;;;;1007103;29;990;-16
2021/12/12 03:09:37;;;;;;;;;;;;;;;;;;1009691;29;2029;-16
2021/12/12 03:10:11;;;;;;;;;;;;;;;;;;1011918;29;1667;-16
2021/12/12 03:10:45;;;;;;;;;;;;;;;;;;1011727;29;1337;-17
2021/12/12 03:11:16;;;;;;;;;;;;;;;;;;1006737;29;1352;-16
2021/12/12 03:11:48;;;;;;;;;;;;;;;;;;1006712;29;1219;-16
2021/12/12 03:12:23;;;;;;;;;;;;;;;;;;999688;29;962;-16
2021/12/12 03:12:54;;;;;;;;;;;;;;;;;;1004191;29;1005;-16
2021/12/12 03:13:25;;;;;;;;;;;;;;;;;;1006654;29;1159;-16
2021/12/12 03:13:56;;;;;;;;;;;;;;;;;;1008299;29;1639;-16
2021/12/12 03:14:32;;;;;;;;;;;;;;;;;;1006634;29;1040;-16
2021/12/12 03:15:08;;;;;;;;;;;;;;;;;;994707;29;1376;-16
2021/12/12 03:15:40;;;;;;;;;;;;;;;;;;995379;29;1017;-16
2021/12/12 03:16:10;;;;;;;;;;;;;;;;;;996236;29;1315;-16
2021/12/12 03:16:41;;;;;;;;;;;;;;;;;;1004968;29;1245;-16
2021/12/12 03:17:18;;;;;;;;;;;;;;;;;;1010746;29;935;-16
2021/12/12 03:17:50;;;;;;;;;;;;;;;;;;1009887;29;1361;-16
2021/12/12 03:18:28;;;;;;;;;;;;;;;;;;1010517;29;1078;-16
2021/12/12 03:18:58;;;;;;;;;;;;;;;;;;1008399;29;1609;-16
2021/12/12 03:19:30;;;;;;;;;;;;;;;;;;1010507;29;1185;-16
2021/12/12 03:20:04;;;;;;;;;;;;;;;;;;994599;29;1107;-16
2021/12/12 03:20:37;;;;;;;;;;;;;;;;;;995660;29;1382;-16
2021/12/12 03:21:16;;;;;;;;;;;;;;;;;;994379;29;1257;-16
2021/12/12 03:21:47;;;;;;;;;;;;;;;;;;998547;29;1502;-16
2021/12/12 03:22:18;;;;;;;;;;;;;;;;;;1003011;29;1130;-16
2021/12/12 03:22:54;;;;;;;;;;;;;;;;;;1008799;29;1194;-16
2021/12/12 03:23:27;;;;;;;;;;;;;;;;;;1014320;29;1381;-16
2021/12/12 03:24:19;;;;;;;;;;;;;;;;;;1015209;29;1154;-16
2021/12/12 03:24:50;;;;;;;;;;;;;;;;;;1005159;29;1168;-16
2021/12/12 03:25:21;;;;;;;;;;;;;;;;;;1014717;29;1283;-16
2021/12/12 03:25:54;;;;;;;;;;;;;;;;;;1006658;29;995;-16
2021/12/12 03:26:25;;;;;;;;;;;;;;;;;;998832;29;957;-15
2021/12/12 03:26:59;;;;;;;;;;;;;;;;;;987974;30;969;-16
2021/12/12 03:27:29;;;;;;;;;;;;;;;;;;989120;29;1615;-16
2021/12/12 03:28:00;;;;;;;;;;;;;;;;;;995845;29;1123;-16
2021/12/12 03:28:32;;;;;;;;;;;;;;;;;;1000132;29;1159;-16
2021/12/12 03:29:05;;;;;;;;;;;;;;;;;;1010801;29;1264;-16
2021/12/12 03:29:36;;;;;;;;;;;;;;;;;;1009997;29;1986;-16
2021/12/12 03:30:07;;;;;;;;;;;;;;;;;;1007336;29;1057;-16
2021/12/12 03:30:38;;;;;;;;;;;;;;;;;;1010142;29;1597;-16
2021/12/12 03:31:12;;;;;;;;;;;;;;;;;;1009846;29;1546;-16
2021/12/12 03:31:46;;;;;;;;;;;;;;;;;;1010975;29;1070;-16
2021/12/12 03:32:19;;;;;;;;;;;;;;;;;;1014324;29;1010;-16
2021/12/12 03:32:49;;;;;;;;;;;;;;;;;;1014409;29;1361;-16
2021/12/12 03:33:21;;;;;;;;;;;;;;;;;;1015438;29;1032;-16
2021/12/12 03:33:51;;;;;;;;;;;;;;;;;;1014475;29;1287;-16
2021/12/12 03:34:23;;;;;;;;;;;;;;;;;;1014865;29;1385;-16
2021/12/12 03:34:57;;;;;;;;;;;;;;;;;;1010147;29;1292;-16
2021/12/12 03:35:28;;;;;;;;;;;;;;;;;;1014359;29;1037;-16
2021/12/12 03:36:00;;;;;;;;;;;;;;;;;;1013190;29;1204;-16
2021/12/12 03:36:31;;;;;;;;;;;;;;;;;;1011618;29;1328;-16
2021/12/12 03:37:04;;;;;;;;;;;;;;;;;;1005480;29;1356;-16
2021/12/12 03:37:34;;;;;;;;;;;;;;;;;;999579;29;1539;-16
2021/12/12 03:38:05;;;;;;;;;;;;;;;;;;1002587;29;1151;-15
2021/12/12 03:38:38;;;;;;;;;;;;;;;;;;1007641;29;1114;-16
2021/12/12 03:39:14;;;;;;;;;;;;;;;;;;1018752;29;1333;-16
2021/12/12 03:39:46;;;;;;;;;;;;;;;;;;1018853;29;1023;-16
2021/12/12 03:40:22;;;;;;;;;;;;;;;;;;1019372;29;983;-16
2021/12/12 03:40:54;;;;;;;;;;;;;;;;;;1013793;29;1374;-16
2021/12/12 03:41:27;;;;;;;;;;;;;;;;;;1014246;29;1479;-16
2021/12/12 03:41:59;;;;;;;;;;;;;;;;;;1014395;29;1189;-16
2021/12/12 03:42:30;;;;;;;;;;;;;;;;;;1015474;29;986;-16
2021/12/12 03:43:01;;;;;;;;;;;;;;;;;;1019210;29;896;-16
2021/12/12 03:43:32;;;;;;;;;;;;;;;;;;1018714;29;1062;-16
2021/12/12 03:44:05;;;;;;;;;;;;;;;;;;1019285;29;1062;-16
2021/12/12 03:44:37;;;;;;;;;;;;;;;;;;1018484;29;1635;-16
2021/12/12 03:45:08;;;;;;;;;;;;;;;;;;1018932;29;1014;-16
2021/12/12 03:45:40;;;;;;;;;;;;;;;;;;1010524;29;1020;-16
2021/12/12 03:46:11;;;;;;;;;;;;;;;;;;1010510;29;1156;-16
2021/12/12 03:46:43;;;;;;;;;;;;;;;;;;1014142;29;1258;-16
2021/12/12 03:47:19;;;;;;;;;;;;;;;;;;1007036;29;922;-16
2021/12/12 03:48:10;;;;;;;;;;;;;;;;;;1010396;29;998;-16
2021/12/12 03:48:47;;;;;;;;;;;;;;;;;;1007603;29;1005;-16
2021/12/12 03:49:17;;;;;;;;;;;;;;;;;;1014468;29;876;-16
2021/12/12 03:49:48;;;;;;;;;;;;;;;;;;1014461;29;1911;-16
2021/12/12 03:50:23;;;;;;;;;;;;;;;;;;1014393;29;951;-16
2021/12/12 03:50:55;;;;;;;;;;;;;;;;;;1015179;29;967;-16
2021/12/12 03:51:27;;;;;;;;;;;;;;;;;;1018345;29;1479;-16
2021/12/12 03:51:58;;;;;;;;;;;;;;;;;;1013822;29;1290;-16
2021/12/12 03:52:29;;;;;;;;;;;;;;;;;;1014666;29;1448;-16
2021/12/12 03:53:00;;;;;;;;;;;;;;;;;;1013610;29;1789;-16
2021/12/12 03:53:31;;;;;;;;;;;;;;;;;;1014164;29;1021;-16
2021/12/12 03:54:02;;;;;;;;;;;;;;;;;;1017712;29;1204;-16
2021/12/12 03:54:32;;;;;;;;;;;;;;;;;;1018502;29;1083;-16
2021/12/12 03:55:05;;;;;;;;;;;;;;;;;;1014040;29;980;-16
2021/12/12 03:55:35;;;;;;;;;;;;;;;;;;1010519;29;946;-16
2021/12/12 03:56:09;;;;;;;;;;;;;;;;;;1006612;29;1064;-16
2021/12/12 03:56:40;;;;;;;;;;;;;;;;;;1007831;29;1568;-16
2021/12/12 03:57:11;;;;;;;;;;;;;;;;;;1014141;29;1184;-16
2021/12/12 03:57:42;;;;;;;;;;;;;;;;;;1014991;29;963;-16
2021/12/12 03:58:12;;;;;;;;;;;;;;;;;;1014147;29;1378;-16
2021/12/12 03:58:44;;;;;;;;;;;;;;;;;;1014164;29;1098;-16
2021/12/12 03:59:15;;;;;;;;;;;;;;;;;;1014707;29;1042;-16
2021/12/12 03:59:46;;;;;;;;;;;;;;;;;;1006124;29;1375;-16
2021/12/12 04:00:37;;;;;;;;;;;;;;;;;;1006831;29;1123;-16
2021/12/12 04:01:12;;;;;;;;;;;;;;;;;;1004801;29;1474;-16
2021/12/12 04:01:45;;;;;;;;;;;;;;;;;;1002863;29;1026;-16
2021/12/12 04:02:15;;;;;;;;;;;;;;;;;;1005642;29;1336;-16
2021/12/12 04:02:47;;;;;;;;;;;;;;;;;;998757;29;1055;-16
2021/12/12 04:03:17;;;;;;;;;;;;;;;;;;995544;29;1020;-16
2021/12/12 04:03:49;;;;;;;;;;;;;;;;;;998203;29;1462;-16
2021/12/12 04:04:28;;;;;;;;;;;;;;;;;;999024;29;1127;-16
2021/12/12 04:04:58;;;;;;;;;;;;;;;;;;1004787;29;2030;-16
2021/12/12 04:05:29;;;;;;;;;;;;;;;;;;1011715;29;1011;-16
2021/12/12 04:06:03;;;;;;;;;;;;;;;;;;1015730;29;1134;-16
2021/12/12 04:06:33;;;;;;;;;;;;;;;;;;1009673;29;1682;-16
2021/12/12 04:07:12;;;;;;;;;;;;;;;;;;1010431;29;954;-16